createdAt,value
2017-09-06T00:00:06.806Z,19.07
2017-09-06T00:00:34.854Z,18.99
2017-09-06T00:01:02.921Z,18.96
2017-09-06T00:01:31.123Z,18.96
2017-09-06T00:01:59.213Z,19.05
2017-09-06T00:02:27.172Z,19
2017-09-06T00:02:55.332Z,18.99
2017-09-06T00:03:23.782Z,18.99
2017-09-06T00:03:51.967Z,18.94
2017-09-06T00:04:19.897Z,18.91
2017-09-06T00:04:47.925Z,18.91
2017-09-06T00:05:16.345Z,18.93
2017-09-06T00:05:44.478Z,18.94
2017-09-06T00:06:12.512Z,18.82
2017-09-06T00:06:40.815Z,18.82
2017-09-06T00:07:08.971Z,18.81
2017-09-06T00:07:37.090Z,18.79
2017-09-06T00:08:05.223Z,18.74
2017-09-06T00:08:33.397Z,18.71
2017-09-06T00:09:01.512Z,18.72
2017-09-06T00:09:29.710Z,18.72
2017-09-06T00:09:57.622Z,18.71
2017-09-06T00:10:25.789Z,18.72
2017-09-06T00:10:53.952Z,18.72
2017-09-06T00:11:22.025Z,18.71
2017-09-06T00:11:50.199Z,18.69
2017-09-06T00:12:18.259Z,18.72
2017-09-06T00:12:46.339Z,18.69
2017-09-06T00:13:14.522Z,18.68
2017-09-06T00:13:42.681Z,18.72
2017-09-06T00:14:10.602Z,18.71
2017-09-06T00:14:38.807Z,18.66
2017-09-06T00:15:06.990Z,18.69
2017-09-06T00:15:35.044Z,18.65
2017-09-06T00:16:03.160Z,18.68
2017-09-06T00:16:31.181Z,18.57
2017-09-06T00:16:59.772Z,18.63
2017-09-06T00:17:28.464Z,18.56
2017-09-06T00:17:56.779Z,18.68
2017-09-06T00:18:24.830Z,18.66
2017-09-06T00:18:52.764Z,18.6
2017-09-06T00:19:20.707Z,18.59
2017-09-06T00:19:48.888Z,18.59
2017-09-06T00:20:17.037Z,18.59
2017-09-06T00:20:44.915Z,18.63
2017-09-06T00:21:13.014Z,18.65
2017-09-06T00:21:41.051Z,18.71
2017-09-06T00:22:09.195Z,18.63
2017-09-06T00:22:37.332Z,18.72
2017-09-06T00:23:05.379Z,18.71
2017-09-06T00:23:33.533Z,18.74
2017-09-06T00:24:01.571Z,18.82
2017-09-06T00:24:29.499Z,18.81
2017-09-06T00:24:57.661Z,18.86
2017-09-06T00:25:25.810Z,18.9
2017-09-06T00:25:53.769Z,18.87
2017-09-06T00:26:21.832Z,18.97
2017-09-06T00:26:49.700Z,18.94
2017-09-06T00:27:17.785Z,19
2017-09-06T00:27:45.819Z,18.96
2017-09-06T00:28:13.793Z,18.93
2017-09-06T00:28:42.057Z,18.87
2017-09-06T00:29:10.206Z,18.91
2017-09-06T00:29:38.245Z,18.94
2017-09-06T00:30:06.304Z,18.93
2017-09-06T00:30:34.356Z,18.89
2017-09-06T00:31:02.472Z,18.91
2017-09-06T00:31:30.605Z,18.82
2017-09-06T00:31:58.547Z,18.79
2017-09-06T00:32:26.728Z,18.87
2017-09-06T00:32:54.790Z,18.78
2017-09-06T00:33:22.927Z,18.76
2017-09-06T00:33:50.973Z,18.75
2017-09-06T00:34:19.130Z,18.74
2017-09-06T00:34:47.056Z,18.79
2017-09-06T00:35:15.198Z,18.75
2017-09-06T00:35:43.370Z,18.69
2017-09-06T00:36:11.476Z,18.72
2017-09-06T00:36:39.642Z,18.71
2017-09-06T00:37:07.760Z,18.61
2017-09-06T00:37:35.757Z,18.6
2017-09-06T00:38:03.711Z,18.63
2017-09-06T00:38:31.768Z,18.63
2017-09-06T00:38:59.709Z,18.59
2017-09-06T00:39:27.756Z,18.6
2017-09-06T00:39:55.883Z,18.54
2017-09-06T00:40:24.030Z,18.59
2017-09-06T00:40:52.182Z,18.57
2017-09-06T00:41:20.230Z,18.47
2017-09-06T00:41:48.190Z,18.54
2017-09-06T00:42:16.207Z,18.51
2017-09-06T00:42:44.175Z,18.51
2017-09-06T00:43:12.241Z,18.56
2017-09-06T00:43:40.456Z,18.47
2017-09-06T00:44:08.560Z,18.36
2017-09-06T00:44:36.719Z,18.29
2017-09-06T00:45:04.924Z,18.32
2017-09-06T00:45:33.118Z,18.31
2017-09-06T00:46:01.188Z,18.32
2017-09-06T00:46:29.365Z,18.29
2017-09-06T00:46:57.519Z,18.35
2017-09-06T00:47:25.670Z,18.31
2017-09-06T00:47:53.725Z,18.29
2017-09-06T00:48:21.889Z,18.29
2017-09-06T00:48:49.934Z,18.23
2017-09-06T00:49:18.053Z,18.29
2017-09-06T00:49:46.224Z,18.24
2017-09-06T00:50:14.351Z,18.16
2017-09-06T00:50:42.503Z,18.17
2017-09-06T00:51:10.637Z,18.16
2017-09-06T00:51:38.690Z,18.13
2017-09-06T00:52:06.735Z,18.14
2017-09-06T00:52:34.802Z,18.13
2017-09-06T00:53:03.004Z,18.17
2017-09-06T00:53:31.042Z,18.14
2017-09-06T00:53:59.086Z,18.13
2017-09-06T00:54:27.123Z,18.08
2017-09-06T00:54:55.257Z,18.08
2017-09-06T00:55:23.186Z,18.05
2017-09-06T00:55:51.123Z,18.01
2017-09-06T00:56:19.288Z,18.03
2017-09-06T00:56:47.434Z,17.96
2017-09-06T00:57:15.606Z,18.01
2017-09-06T00:57:43.574Z,17.95
2017-09-06T00:58:11.605Z,18.08
2017-09-06T00:58:39.810Z,18.06
2017-09-06T00:59:07.855Z,17.99
2017-09-06T00:59:35.706Z,18.03
2017-09-06T01:00:03.869Z,17.99
2017-09-06T01:00:31.870Z,17.98
2017-09-06T01:00:59.860Z,17.95
2017-09-06T01:01:27.819Z,17.94
2017-09-06T01:01:55.862Z,17.9
2017-09-06T01:02:23.880Z,17.95
2017-09-06T01:02:52.008Z,17.98
2017-09-06T01:03:20.027Z,17.94
2017-09-06T01:03:48.105Z,17.95
2017-09-06T01:04:16.183Z,17.99
2017-09-06T01:04:44.243Z,17.94
2017-09-06T01:05:12.266Z,17.94
2017-09-06T01:05:40.332Z,17.94
2017-09-06T01:06:08.259Z,17.95
2017-09-06T01:06:36.272Z,17.95
2017-09-06T01:07:04.180Z,17.92
2017-09-06T01:07:32.144Z,17.98
2017-09-06T01:08:00.222Z,17.94
2017-09-06T01:08:28.283Z,17.94
2017-09-06T01:08:56.413Z,17.95
2017-09-06T01:09:24.464Z,17.98
2017-09-06T01:09:52.605Z,17.87
2017-09-06T01:10:20.771Z,17.95
2017-09-06T01:10:48.908Z,17.94
2017-09-06T01:11:17.060Z,17.92
2017-09-06T01:11:45.194Z,17.98
2017-09-06T01:12:13.251Z,18.01
2017-09-06T01:12:41.370Z,17.96
2017-09-06T01:13:09.420Z,17.96
2017-09-06T01:13:37.464Z,18.02
2017-09-06T01:14:05.614Z,17.98
2017-09-06T01:14:33.746Z,17.88
2017-09-06T01:15:01.592Z,17.96
2017-09-06T01:15:29.714Z,17.95
2017-09-06T01:15:57.902Z,18.02
2017-09-06T01:16:25.938Z,17.87
2017-09-06T01:16:53.925Z,17.88
2017-09-06T01:17:21.887Z,17.96
2017-09-06T01:17:49.942Z,17.84
2017-09-06T01:18:18.145Z,18.01
2017-09-06T01:18:46.247Z,17.84
2017-09-06T01:19:14.578Z,17.92
2017-09-06T01:19:42.599Z,17.86
2017-09-06T01:20:10.758Z,17.86
2017-09-06T01:20:38.962Z,17.92
2017-09-06T01:21:07.107Z,17.86
2017-09-06T01:21:35.054Z,17.92
2017-09-06T01:22:03.078Z,17.87
2017-09-06T01:22:31.283Z,17.76
2017-09-06T01:22:59.341Z,17.83
2017-09-06T01:23:27.494Z,17.8
2017-09-06T01:23:55.701Z,17.92
2017-09-06T01:24:23.858Z,17.88
2017-09-06T01:24:52.019Z,17.87
2017-09-06T01:25:20.131Z,17.8
2017-09-06T01:25:48.080Z,17.8
2017-09-06T01:26:16.274Z,17.84
2017-09-06T01:26:44.216Z,17.84
2017-09-06T01:27:12.228Z,17.9
2017-09-06T01:27:40.386Z,17.8
2017-09-06T01:28:08.568Z,17.86
2017-09-06T01:28:36.762Z,17.87
2017-09-06T01:29:04.890Z,17.86
2017-09-06T01:29:33.023Z,17.92
2017-09-06T01:30:01.062Z,17.87
2017-09-06T01:30:29.092Z,17.86
2017-09-06T01:30:57.237Z,17.87
2017-09-06T01:31:25.357Z,17.87
2017-09-06T01:31:53.396Z,17.81
2017-09-06T01:32:21.528Z,17.77
2017-09-06T01:32:49.539Z,17.84
2017-09-06T01:33:17.699Z,17.68
2017-09-06T01:33:45.729Z,17.8
2017-09-06T01:34:13.892Z,17.79
2017-09-06T01:34:42.032Z,17.77
2017-09-06T01:35:09.978Z,17.77
2017-09-06T01:35:37.928Z,17.73
2017-09-06T01:36:05.958Z,17.69
2017-09-06T01:36:34.088Z,17.73
2017-09-06T01:37:02.051Z,17.79
2017-09-06T01:37:30.206Z,17.71
2017-09-06T01:37:58.234Z,17.77
2017-09-06T01:38:26.276Z,17.81
2017-09-06T01:38:54.422Z,17.76
2017-09-06T01:39:22.592Z,17.65
2017-09-06T01:39:50.632Z,17.65
2017-09-06T01:40:18.577Z,17.58
2017-09-06T01:40:46.702Z,17.66
2017-09-06T01:41:14.761Z,17.62
2017-09-06T01:41:42.819Z,17.66
2017-09-06T01:42:10.983Z,17.65
2017-09-06T01:42:38.916Z,17.62
2017-09-06T01:43:06.858Z,17.63
2017-09-06T01:43:34.915Z,17.62
2017-09-06T01:44:03.065Z,17.57
2017-09-06T01:44:31.345Z,17.6
2017-09-06T01:44:59.283Z,17.65
2017-09-06T01:45:27.264Z,17.54
2017-09-06T01:45:55.392Z,17.55
2017-09-06T01:46:23.240Z,17.57
2017-09-06T01:46:51.349Z,17.5
2017-09-06T01:47:19.477Z,17.5
2017-09-06T01:47:47.533Z,17.52
2017-09-06T01:48:15.623Z,17.49
2017-09-06T01:48:43.590Z,17.49
2017-09-06T01:49:11.705Z,17.49
2017-09-06T01:49:39.666Z,17.54
2017-09-06T01:50:07.635Z,17.5
2017-09-06T01:50:35.815Z,17.46
2017-09-06T01:51:03.868Z,17.46
2017-09-06T01:51:31.944Z,17.4
2017-09-06T01:52:00.085Z,17.42
2017-09-06T01:52:28.244Z,17.36
2017-09-06T01:52:56.370Z,17.39
2017-09-06T01:53:24.421Z,17.4
2017-09-06T01:53:52.542Z,17.45
2017-09-06T01:54:20.781Z,17.43
2017-09-06T01:54:48.729Z,17.4
2017-09-06T01:55:16.755Z,17.38
2017-09-06T01:55:44.853Z,17.4
2017-09-06T01:56:12.795Z,17.3
2017-09-06T01:56:40.815Z,17.32
2017-09-06T01:57:08.983Z,17.35
2017-09-06T01:57:37.045Z,17.35
2017-09-06T01:58:05.161Z,17.36
2017-09-06T01:58:33.088Z,17.32
2017-09-06T01:59:01.236Z,17.31
2017-09-06T01:59:29.434Z,17.28
2017-09-06T01:59:57.585Z,17.28
2017-09-06T02:00:25.738Z,17.31
2017-09-06T02:00:53.790Z,17.3
2017-09-06T02:01:21.852Z,17.3
2017-09-06T02:01:49.808Z,17.36
2017-09-06T02:02:17.981Z,17.32
2017-09-06T02:02:46.030Z,17.21
2017-09-06T02:03:14.268Z,17.25
2017-09-06T02:03:42.411Z,17.21
2017-09-06T02:04:10.340Z,17.17
2017-09-06T02:04:38.477Z,17.1
2017-09-06T02:05:06.589Z,17.15
2017-09-06T02:05:34.664Z,17.1
2017-09-06T02:06:02.814Z,17.1
2017-09-06T02:06:30.943Z,17.05
2017-09-06T02:06:59.091Z,17.06
2017-09-06T02:07:27.125Z,16.97
2017-09-06T02:07:55.055Z,16.99
2017-09-06T02:08:23.244Z,16.88
2017-09-06T02:08:51.419Z,16.99
2017-09-06T02:09:19.486Z,16.94
2017-09-06T02:09:47.604Z,16.95
2017-09-06T02:10:15.747Z,16.88
2017-09-06T02:10:43.824Z,16.95
2017-09-06T02:11:11.764Z,16.9
2017-09-06T02:11:39.903Z,16.81
2017-09-06T02:12:08.060Z,16.9
2017-09-06T02:12:36.057Z,16.74
2017-09-06T02:13:04.217Z,16.8
2017-09-06T02:13:32.163Z,16.84
2017-09-06T02:14:00.116Z,16.74
2017-09-06T02:14:28.345Z,16.81
2017-09-06T02:14:56.259Z,16.8
2017-09-06T02:15:24.355Z,16.8
2017-09-06T02:15:52.475Z,16.82
2017-09-06T02:16:20.421Z,16.8
2017-09-06T02:16:48.442Z,16.82
2017-09-06T02:17:16.497Z,16.82
2017-09-06T02:17:44.618Z,16.92
2017-09-06T02:18:12.624Z,16.87
2017-09-06T02:18:40.639Z,16.85
2017-09-06T02:19:08.857Z,16.82
2017-09-06T02:19:37.210Z,16.9
2017-09-06T02:20:05.370Z,16.87
2017-09-06T02:20:34.163Z,16.9
2017-09-06T02:21:02.174Z,16.87
2017-09-06T02:21:30.247Z,16.9
2017-09-06T02:21:58.284Z,16.87
2017-09-06T02:22:26.295Z,16.76
2017-09-06T02:22:54.270Z,16.88
2017-09-06T02:23:22.316Z,16.8
2017-09-06T02:23:50.375Z,16.82
2017-09-06T02:24:18.440Z,16.8
2017-09-06T02:24:46.525Z,16.81
2017-09-06T02:25:14.593Z,16.76
2017-09-06T02:25:42.744Z,16.77
2017-09-06T02:26:10.894Z,16.76
2017-09-06T02:26:38.938Z,16.81
2017-09-06T02:27:07.044Z,16.81
2017-09-06T02:27:35.023Z,16.81
2017-09-06T02:28:03.058Z,16.67
2017-09-06T02:28:31.229Z,16.69
2017-09-06T02:28:59.249Z,16.8
2017-09-06T02:29:27.225Z,16.76
2017-09-06T02:29:55.466Z,16.8
2017-09-06T02:30:23.541Z,16.82
2017-09-06T02:30:51.461Z,16.8
2017-09-06T02:31:19.377Z,16.76
2017-09-06T02:31:47.527Z,16.85
2017-09-06T02:32:15.493Z,16.81
2017-09-06T02:32:43.513Z,16.8
2017-09-06T02:33:11.843Z,16.72
2017-09-06T02:33:40.117Z,16.77
2017-09-06T02:34:08.289Z,16.73
2017-09-06T02:34:36.576Z,16.82
2017-09-06T02:35:04.841Z,16.73
2017-09-06T02:35:33.124Z,16.7
2017-09-06T02:36:01.295Z,16.72
2017-09-06T02:36:29.458Z,16.73
2017-09-06T02:36:57.590Z,16.72
2017-09-06T02:37:25.705Z,16.67
2017-09-06T02:37:53.772Z,16.8
2017-09-06T02:38:21.958Z,16.72
2017-09-06T02:38:50.082Z,16.66
2017-09-06T02:39:18.170Z,16.62
2017-09-06T02:39:46.418Z,16.66
2017-09-06T02:40:14.467Z,16.63
2017-09-06T02:40:42.447Z,16.57
2017-09-06T02:41:10.626Z,16.62
2017-09-06T02:41:38.625Z,16.49
2017-09-06T02:42:06.777Z,16.49
2017-09-06T02:42:34.895Z,16.58
2017-09-06T02:43:03.047Z,16.48
2017-09-06T02:43:30.916Z,16.52
2017-09-06T02:43:58.828Z,16.51
2017-09-06T02:44:27.168Z,16.52
2017-09-06T02:44:55.340Z,16.55
2017-09-06T02:45:23.481Z,16.55
2017-09-06T02:45:51.618Z,16.57
2017-09-06T02:46:19.762Z,16.59
2017-09-06T02:46:47.910Z,16.58
2017-09-06T02:47:15.949Z,16.52
2017-09-06T02:47:44.076Z,16.54
2017-09-06T02:48:12.199Z,16.49
2017-09-06T02:48:40.224Z,16.52
2017-09-06T02:49:08.422Z,16.54
2017-09-06T02:49:36.604Z,16.54
2017-09-06T02:50:04.877Z,16.63
2017-09-06T02:50:33.035Z,16.65
2017-09-06T02:51:01.345Z,16.66
2017-09-06T02:51:29.359Z,16.73
2017-09-06T02:51:57.444Z,16.77
2017-09-06T02:52:25.430Z,16.72
2017-09-06T02:52:53.705Z,16.62
2017-09-06T02:53:21.907Z,16.63
2017-09-06T02:53:50.077Z,16.62
2017-09-06T02:54:18.403Z,16.57
2017-09-06T02:54:46.547Z,16.66
2017-09-06T02:55:14.626Z,16.57
2017-09-06T02:55:42.796Z,16.62
2017-09-06T02:56:10.819Z,16.62
2017-09-06T02:56:38.907Z,16.66
2017-09-06T02:57:06.879Z,16.69
2017-09-06T02:57:34.996Z,16.63
2017-09-06T02:58:03.132Z,16.63
2017-09-06T02:58:31.212Z,16.66
2017-09-06T02:58:59.358Z,16.65
2017-09-06T02:59:27.400Z,16.66
2017-09-06T02:59:55.475Z,16.63
2017-09-06T03:00:23.618Z,16.58
2017-09-06T03:00:51.798Z,16.65
2017-09-06T03:01:19.934Z,16.72
2017-09-06T03:01:48.052Z,16.69
2017-09-06T03:02:16.008Z,16.66
2017-09-06T03:02:43.998Z,16.59
2017-09-06T03:03:12.067Z,16.7
2017-09-06T03:03:40.012Z,16.63
2017-09-06T03:04:08.080Z,16.69
2017-09-06T03:04:35.935Z,16.67
2017-09-06T03:05:04.198Z,16.66
2017-09-06T03:05:32.293Z,16.62
2017-09-06T03:06:00.363Z,16.66
2017-09-06T03:06:28.289Z,16.59
2017-09-06T03:06:56.337Z,16.59
2017-09-06T03:07:24.578Z,16.63
2017-09-06T03:07:52.582Z,16.66
2017-09-06T03:08:20.680Z,16.63
2017-09-06T03:08:48.805Z,16.65
2017-09-06T03:09:16.833Z,16.58
2017-09-06T03:09:44.984Z,16.52
2017-09-06T03:10:13.033Z,16.55
2017-09-06T03:10:41.201Z,16.47
2017-09-06T03:11:09.249Z,16.51
2017-09-06T03:11:37.382Z,16.49
2017-09-06T03:12:05.414Z,16.39
2017-09-06T03:12:33.568Z,16.4
2017-09-06T03:13:01.519Z,16.42
2017-09-06T03:13:29.476Z,16.42
2017-09-06T03:13:57.583Z,16.51
2017-09-06T03:14:25.758Z,16.47
2017-09-06T03:14:53.915Z,16.54
2017-09-06T03:15:22.164Z,16.52
2017-09-06T03:15:50.091Z,16.59
2017-09-06T03:16:18.129Z,16.63
2017-09-06T03:16:46.108Z,16.65
2017-09-06T03:17:14.137Z,16.74
2017-09-06T03:19:21.703Z,16.77
2017-09-06T03:19:49.618Z,16.72
2017-09-06T03:20:18.047Z,16.66
2017-09-06T03:20:46.216Z,16.63
2017-09-06T03:21:14.477Z,16.72
2017-09-06T03:21:42.634Z,16.62
2017-09-06T03:22:10.784Z,16.62
2017-09-06T03:22:38.918Z,16.51
2017-09-06T03:23:06.913Z,16.51
2017-09-06T03:23:34.894Z,16.45
2017-09-06T03:24:03.253Z,16.42
2017-09-06T03:24:31.242Z,16.36
2017-09-06T03:24:59.482Z,16.32
2017-09-06T03:25:27.588Z,16.33
2017-09-06T03:25:55.809Z,16.33
2017-09-06T03:26:23.896Z,16.21
2017-09-06T03:26:52.015Z,16.21
2017-09-06T03:27:20.269Z,16.11
2017-09-06T03:27:48.339Z,16.1
2017-09-06T03:28:16.515Z,16.07
2017-09-06T03:28:44.743Z,16.04
2017-09-06T03:29:12.816Z,16.08
2017-09-06T03:29:40.941Z,16.07
2017-09-06T03:30:09.061Z,16
2017-09-06T03:30:37.369Z,15.96
2017-09-06T03:31:05.594Z,15.93
2017-09-06T03:31:33.835Z,15.84
2017-09-06T03:32:01.933Z,15.84
2017-09-06T03:32:30.059Z,15.83
2017-09-06T03:32:58.181Z,15.88
2017-09-06T03:33:26.120Z,15.83
2017-09-06T03:33:54.151Z,15.71
2017-09-06T03:34:22.103Z,15.73
2017-09-06T03:34:50.072Z,15.68
2017-09-06T03:35:18.258Z,15.75
2017-09-06T03:35:46.710Z,15.68
2017-09-06T03:36:14.735Z,15.63
2017-09-06T03:36:43.208Z,15.65
2017-09-06T03:37:11.463Z,15.59
2017-09-06T03:37:39.639Z,15.71
2017-09-06T03:38:07.784Z,15.71
2017-09-06T03:38:36.059Z,15.65
2017-09-06T03:39:04.291Z,15.65
2017-09-06T03:39:32.461Z,15.65
2017-09-06T03:40:00.605Z,15.7
2017-09-06T03:40:28.911Z,15.67
2017-09-06T03:40:57.191Z,15.59
2017-09-06T03:41:25.331Z,15.6
2017-09-06T03:41:53.627Z,15.6
2017-09-06T03:42:21.685Z,15.71
2017-09-06T03:42:49.809Z,15.65
2017-09-06T03:43:17.958Z,15.63
2017-09-06T03:43:46.177Z,15.63
2017-09-06T03:44:14.331Z,15.74
2017-09-06T03:44:42.499Z,15.78
2017-09-06T03:45:10.568Z,15.77
2017-09-06T03:45:38.730Z,15.77
2017-09-06T03:46:07.004Z,15.84
2017-09-06T03:46:35.058Z,15.86
2017-09-06T03:47:03.275Z,15.89
2017-09-06T03:47:31.177Z,15.88
2017-09-06T03:47:59.312Z,15.84
2017-09-06T03:48:27.522Z,15.98
2017-09-06T03:48:55.660Z,15.93
2017-09-06T03:49:23.768Z,15.92
2017-09-06T03:49:51.891Z,15.92
2017-09-06T03:50:19.948Z,15.99
2017-09-06T03:50:48.073Z,15.98
2017-09-06T03:51:16.092Z,16.02
2017-09-06T03:51:44.288Z,16.02
2017-09-06T03:52:12.516Z,15.99
2017-09-06T03:52:40.787Z,15.98
2017-09-06T03:53:08.714Z,16.04
2017-09-06T03:53:36.823Z,16.1
2017-09-06T03:54:05.045Z,16.13
2017-09-06T03:54:33.281Z,16.08
2017-09-06T03:55:01.574Z,16.08
2017-09-06T03:55:29.614Z,16.08
2017-09-06T03:55:57.947Z,16.06
2017-09-06T03:56:26.161Z,16.17
2017-09-06T03:56:54.439Z,16.08
2017-09-06T03:57:22.692Z,16.06
2017-09-06T03:57:50.836Z,16.17
2017-09-06T03:58:18.848Z,16.16
2017-09-06T03:58:47.047Z,16.17
2017-09-06T03:59:15.303Z,16.14
2017-09-06T03:59:43.526Z,16.18
2017-09-06T04:00:11.763Z,16.18
2017-09-06T04:00:39.819Z,16.1
2017-09-06T04:01:08.167Z,16.11
2017-09-06T04:01:36.277Z,16.11
2017-09-06T04:02:04.499Z,16.14
2017-09-06T04:02:32.653Z,16.1
2017-09-06T04:03:00.859Z,16.08
2017-09-06T04:03:28.995Z,16.21
2017-09-06T04:03:57.089Z,16.11
2017-09-06T04:04:25.297Z,16.22
2017-09-06T04:04:53.592Z,16.21
2017-09-06T04:05:21.827Z,16.13
2017-09-06T04:05:50.101Z,16.21
2017-09-06T04:06:18.314Z,16.21
2017-09-06T04:06:46.559Z,16.18
2017-09-06T04:07:14.697Z,16.1
2017-09-06T04:07:42.911Z,16.34
2017-09-06T04:08:11.117Z,16.32
2017-09-06T04:08:39.037Z,16.26
2017-09-06T04:09:07.297Z,16.32
2017-09-06T04:09:35.506Z,16.21
2017-09-06T04:10:03.629Z,16.32
2017-09-06T04:10:31.863Z,16.21
2017-09-06T04:11:00.204Z,16.22
2017-09-06T04:11:28.336Z,16.32
2017-09-06T04:11:56.560Z,16.32
2017-09-06T04:12:24.689Z,16.3
2017-09-06T04:12:52.925Z,16.32
2017-09-06T04:13:20.981Z,16.33
2017-09-06T04:13:49.159Z,16.3
2017-09-06T04:14:17.383Z,16.32
2017-09-06T04:14:45.632Z,16.27
2017-09-06T04:15:13.788Z,16.29
2017-09-06T04:15:41.949Z,16.3
2017-09-06T04:16:10.207Z,16.26
2017-09-06T04:16:38.430Z,16.29
2017-09-06T04:17:06.651Z,16.32
2017-09-06T04:17:34.890Z,16.34
2017-09-06T04:18:03.133Z,16.34
2017-09-06T04:18:31.300Z,16.32
2017-09-06T04:18:59.508Z,16.37
2017-09-06T04:19:27.768Z,16.37
2017-09-06T04:19:55.921Z,16.36
2017-09-06T04:20:24.028Z,16.34
2017-09-06T04:20:51.982Z,16.42
2017-09-06T04:21:20.355Z,16.39
2017-09-06T04:21:48.718Z,16.45
2017-09-06T04:22:16.807Z,16.39
2017-09-06T04:22:45.021Z,16.42
2017-09-06T04:23:13.309Z,16.44
2017-09-06T04:23:41.458Z,16.4
2017-09-06T04:24:09.564Z,16.42
2017-09-06T04:24:37.801Z,16.4
2017-09-06T04:25:05.910Z,16.39
2017-09-06T04:25:34.163Z,16.39
2017-09-06T04:26:02.318Z,16.39
2017-09-06T04:26:30.637Z,16.37
2017-09-06T04:26:58.684Z,16.39
2017-09-06T04:27:26.829Z,16.42
2017-09-06T04:27:54.966Z,16.39
2017-09-06T04:28:23.093Z,16.39
2017-09-06T04:28:51.224Z,16.4
2017-09-06T04:29:19.421Z,16.4
2017-09-06T04:29:47.543Z,16.42
2017-09-06T04:30:15.766Z,16.52
2017-09-06T04:30:43.870Z,16.42
2017-09-06T04:31:12.095Z,16.4
2017-09-06T04:31:40.158Z,16.39
2017-09-06T04:32:08.339Z,16.47
2017-09-06T04:32:36.463Z,16.45
2017-09-06T04:33:04.674Z,16.37
2017-09-06T04:33:32.910Z,16.42
2017-09-06T04:34:01.051Z,16.4
2017-09-06T04:34:29.247Z,16.39
2017-09-06T04:34:57.404Z,16.37
2017-09-06T04:35:25.654Z,16.36
2017-09-06T04:35:53.882Z,16.29
2017-09-06T04:36:22.545Z,16.25
2017-09-06T04:36:50.778Z,16.27
2017-09-06T04:37:19.006Z,16.26
2017-09-06T04:37:47.268Z,16.27
2017-09-06T04:38:15.482Z,16.26
2017-09-06T04:38:43.620Z,16.22
2017-09-06T04:39:11.749Z,16.25
2017-09-06T04:39:39.861Z,16.26
2017-09-06T04:40:07.897Z,16.25
2017-09-06T04:40:35.950Z,16.33
2017-09-06T04:41:03.874Z,16.33
2017-09-06T04:41:32.272Z,16.3
2017-09-06T04:42:00.527Z,16.3
2017-09-06T04:42:28.797Z,16.34
2017-09-06T04:42:56.920Z,16.37
2017-09-06T04:43:25.199Z,16.4
2017-09-06T04:43:53.281Z,16.32
2017-09-06T04:44:21.506Z,16.39
2017-09-06T04:44:49.648Z,16.37
2017-09-06T04:45:17.810Z,16.39
2017-09-06T04:45:45.991Z,16.45
2017-09-06T04:46:14.228Z,16.39
2017-09-06T04:46:42.719Z,16.47
2017-09-06T04:47:10.961Z,16.39
2017-09-06T04:47:39.203Z,16.42
2017-09-06T04:48:07.356Z,16.45
2017-09-06T04:48:35.527Z,16.51
2017-09-06T04:49:03.530Z,16.51
2017-09-06T04:49:31.681Z,16.47
2017-09-06T04:49:59.584Z,16.51
2017-09-06T04:50:27.780Z,16.55
2017-09-06T04:50:55.897Z,16.55
2017-09-06T04:51:24.167Z,16.52
2017-09-06T04:51:52.514Z,16.52
2017-09-06T04:52:20.635Z,16.55
2017-09-06T04:52:48.817Z,16.52
2017-09-06T04:53:16.907Z,16.58
2017-09-06T04:53:45.149Z,16.49
2017-09-06T04:54:13.278Z,16.49
2017-09-06T04:54:41.459Z,16.54
2017-09-06T04:55:09.717Z,16.59
2017-09-06T04:55:37.914Z,16.52
2017-09-06T04:56:06.135Z,16.55
2017-09-06T04:56:34.355Z,16.49
2017-09-06T04:57:02.569Z,16.49
2017-09-06T04:57:30.825Z,16.54
2017-09-06T04:57:59.086Z,16.51
2017-09-06T04:58:27.146Z,16.55
2017-09-06T04:58:55.180Z,16.49
2017-09-06T04:59:23.425Z,16.55
2017-09-06T04:59:51.636Z,16.52
2017-09-06T05:00:19.852Z,16.52
2017-09-06T05:00:47.932Z,16.52
2017-09-06T05:01:16.056Z,16.55
2017-09-06T05:01:44.382Z,16.59
2017-09-06T05:02:12.623Z,16.52
2017-09-06T05:02:40.714Z,16.52
2017-09-06T05:03:08.867Z,16.52
2017-09-06T05:03:36.948Z,16.52
2017-09-06T05:04:05.152Z,16.52
2017-09-06T05:04:33.342Z,16.57
2017-09-06T05:05:01.612Z,16.58
2017-09-06T05:05:29.798Z,16.54
2017-09-06T05:05:57.847Z,16.55
2017-09-06T05:06:25.982Z,16.59
2017-09-06T05:06:54.317Z,16.54
2017-09-06T05:07:22.446Z,16.59
2017-09-06T05:07:50.669Z,16.52
2017-09-06T05:08:18.629Z,16.59
2017-09-06T05:08:46.748Z,16.57
2017-09-06T05:09:14.793Z,16.49
2017-09-06T05:09:42.729Z,16.55
2017-09-06T05:10:10.873Z,16.51
2017-09-06T05:10:39.004Z,16.51
2017-09-06T05:11:07.151Z,16.47
2017-09-06T05:11:35.297Z,16.51
2017-09-06T05:12:03.660Z,16.54
2017-09-06T05:12:31.906Z,16.4
2017-09-06T05:12:59.975Z,16.49
2017-09-06T05:13:28.212Z,16.47
2017-09-06T05:13:56.475Z,16.49
2017-09-06T05:14:24.617Z,16.48
2017-09-06T05:14:52.843Z,16.47
2017-09-06T05:15:21.062Z,16.47
2017-09-06T05:15:49.298Z,16.48
2017-09-06T05:16:17.465Z,16.49
2017-09-06T05:16:45.659Z,16.55
2017-09-06T05:17:13.937Z,16.54
2017-09-06T05:17:42.152Z,16.55
2017-09-06T05:18:10.312Z,16.57
2017-09-06T05:18:38.422Z,16.55
2017-09-06T05:19:06.533Z,16.54
2017-09-06T05:19:34.681Z,16.59
2017-09-06T05:20:02.886Z,16.58
2017-09-06T05:20:31.122Z,16.62
2017-09-06T05:20:59.261Z,16.59
2017-09-06T05:21:27.498Z,16.63
2017-09-06T05:21:55.735Z,16.63
2017-09-06T05:22:23.921Z,16.69
2017-09-06T05:22:52.160Z,16.59
2017-09-06T05:23:20.385Z,16.7
2017-09-06T05:23:48.527Z,16.7
2017-09-06T05:24:16.641Z,16.7
2017-09-06T05:24:44.780Z,16.59
2017-09-06T05:25:13.008Z,16.57
2017-09-06T05:25:41.236Z,16.73
2017-09-06T05:26:09.356Z,16.62
2017-09-06T05:26:37.403Z,16.58
2017-09-06T05:27:05.742Z,16.63
2017-09-06T05:27:33.981Z,16.66
2017-09-06T05:28:02.038Z,16.63
2017-09-06T05:28:30.272Z,16.67
2017-09-06T05:28:58.415Z,16.62
2017-09-06T05:29:26.670Z,16.62
2017-09-06T05:29:54.702Z,16.69
2017-09-06T05:30:22.961Z,16.7
2017-09-06T05:30:51.160Z,16.66
2017-09-06T05:31:19.362Z,16.63
2017-09-06T05:31:47.371Z,16.72
2017-09-06T05:32:15.602Z,16.67
2017-09-06T05:32:43.796Z,16.66
2017-09-06T05:33:12.031Z,16.73
2017-09-06T05:33:40.306Z,16.66
2017-09-06T05:34:08.556Z,16.62
2017-09-06T05:34:36.767Z,16.67
2017-09-06T05:35:04.991Z,16.67
2017-09-06T05:35:33.246Z,16.62
2017-09-06T05:36:01.382Z,16.66
2017-09-06T05:36:29.641Z,16.63
2017-09-06T05:36:57.811Z,16.72
2017-09-06T05:37:26.089Z,16.69
2017-09-06T05:37:53.963Z,16.66
2017-09-06T05:38:22.069Z,16.66
2017-09-06T05:38:50.298Z,16.66
2017-09-06T05:39:18.460Z,16.7
2017-09-06T05:39:46.641Z,16.63
2017-09-06T05:40:14.761Z,16.59
2017-09-06T05:40:42.980Z,16.62
2017-09-06T05:41:10.896Z,16.7
2017-09-06T05:41:39.156Z,16.72
2017-09-06T05:42:07.305Z,16.74
2017-09-06T05:42:35.437Z,16.72
2017-09-06T05:43:03.642Z,16.77
2017-09-06T05:43:31.852Z,16.74
2017-09-06T05:44:00.081Z,16.69
2017-09-06T05:44:28.335Z,16.69
2017-09-06T05:44:56.580Z,16.76
2017-09-06T05:45:24.764Z,16.72
2017-09-06T05:45:52.895Z,16.7
2017-09-06T05:46:21.055Z,16.69
2017-09-06T05:46:49.275Z,16.74
2017-09-06T05:47:17.589Z,16.7
2017-09-06T05:47:45.788Z,16.76
2017-09-06T05:48:13.891Z,16.74
2017-09-06T05:48:42.120Z,16.66
2017-09-06T05:49:10.174Z,16.69
2017-09-06T05:49:38.278Z,16.73
2017-09-06T05:50:06.486Z,16.72
2017-09-06T05:50:34.605Z,16.7
2017-09-06T05:51:02.859Z,16.74
2017-09-06T05:51:31.069Z,16.74
2017-09-06T05:51:59.287Z,16.76
2017-09-06T05:52:27.470Z,16.63
2017-09-06T05:52:55.538Z,16.65
2017-09-06T05:53:23.660Z,16.72
2017-09-06T05:53:51.821Z,16.73
2017-09-06T05:54:19.952Z,16.76
2017-09-06T05:54:48.199Z,16.72
2017-09-06T05:55:16.344Z,16.72
2017-09-06T05:55:44.355Z,16.7
2017-09-06T05:56:12.606Z,16.72
2017-09-06T05:56:40.737Z,16.73
2017-09-06T05:57:08.847Z,16.73
2017-09-06T05:57:37.167Z,16.65
2017-09-06T05:58:05.215Z,16.7
2017-09-06T05:58:33.713Z,16.72
2017-09-06T05:59:02.258Z,16.66
2017-09-06T05:59:30.515Z,16.63
2017-09-06T05:59:58.574Z,16.8
2017-09-06T06:00:26.806Z,16.66
2017-09-06T06:00:55.039Z,16.7
2017-09-06T06:01:23.286Z,16.73
2017-09-06T06:01:51.394Z,16.69
2017-09-06T06:02:19.563Z,16.62
2017-09-06T06:02:47.851Z,16.72
2017-09-06T06:03:15.878Z,16.66
2017-09-06T06:03:44.055Z,16.74
2017-09-06T06:04:12.298Z,16.57
2017-09-06T06:04:40.527Z,16.69
2017-09-06T06:05:08.737Z,16.67